Time;durP1;ratioP1;P1;durP2;ratioP2;P2;SDS_P1;SDS_P2;PMS_P1;PMS_P2;Temp;Humidity;BMP_temperature;BMP_pressure;BME280_temperature;BME280_humidity;BME280_pressure;Samples;Min_cycle;Max_cycle;Signal;HPM_P1;HPM_P2
2021/05/09 00:02:21;;;;;;;3.83;2.83;;;10.00;67.20;;;;;;5092309;28;20734;-71
2021/05/09 00:04:49;;;;;;;7.72;2.60;;;10.00;67.30;;;;;;5092638;28;20189;-71
2021/05/09 00:07:16;;;;;;;3.95;2.88;;;10.00;66.60;;;;;;5111639;28;20684;-70
2021/05/09 00:09:43;;;;;;;4.20;3.30;;;10.00;65.90;;;;;;5112702;28;20298;-71
2021/05/09 00:12:11;;;;;;;4.20;2.47;;;9.80;67.30;;;;;;5111381;28;20723;-71
2021/05/09 00:14:38;;;;;;;4.35;3.38;;;9.80;67.50;;;;;;5112318;28;20191;-71
2021/05/09 00:17:05;;;;;;;4.03;3.28;;;9.70;67.70;;;;;;5095735;28;20593;-71
2021/05/09 00:19:32;;;;;;;5.22;3.50;;;9.70;68.00;;;;;;5092672;28;20189;-71
2021/05/09 00:22:03;;;;;;;8.98;3.35;;;9.60;68.50;;;;;;5110793;28;20188;-71
2021/05/09 00:24:30;;;;;;;3.40;2.65;;;9.60;68.90;;;;;;5116573;28;20188;-72
2021/05/09 00:26:58;;;;;;;2.65;2.20;;;9.60;69.60;;;;;;5101686;28;20234;-71
2021/05/09 00:29:25;;;;;;;3.53;2.30;;;9.60;70.20;;;;;;5096037;28;20193;-71
2021/05/09 00:31:52;;;;;;;4.35;2.25;;;9.50;70.30;;;;;;5108237;28;20587;-70
2021/05/09 00:34:21;;;;;;;5.07;2.17;;;9.50;70.00;;;;;;5116249;28;20188;-70
2021/05/09 00:36:54;;;;;;;6.13;2.65;;;9.50;70.70;;;;;;5099277;27;20220;-71
2021/05/09 00:39:22;;;;;;;3.60;2.55;;;9.40;70.80;;;;;;5097020;28;20225;-71
2021/05/09 00:42:01;;;;;;;6.45;3.10;;;9.50;70.40;;;;;;5095855;28;20193;-71
2021/05/09 00:44:34;;;;;;;4.13;2.50;;;9.50;70.70;;;;;;5098566;28;20184;-70
2021/05/09 00:47:17;;;;;;;4.65;2.35;;;9.40;70.80;;;;;;5116127;28;20249;-71
2021/05/09 00:49:44;;;;;;;2.80;2.10;;;9.40;71.30;;;;;;5110424;28;20189;-70
2021/05/09 00:52:26;;;;;;;3.65;2.20;;;9.40;71.20;;;;;;5095484;28;20189;-70
2021/05/09 00:54:58;;;;;;;2.90;1.88;;;9.40;71.30;;;;;;5100869;28;20189;-72
2021/05/09 00:57:26;;;;;;;2.78;1.77;;;9.40;71.70;;;;;;5115951;28;20205;-70
2021/05/09 00:59:56;;;;;;;3.80;2.80;;;9.40;71.40;;;;;;5110745;28;20264;-70
2021/05/09 01:02:41;;;;;;;3.08;2.20;;;9.30;70.20;;;;;;5093365;28;20246;-71
2021/05/09 01:05:09;;;;;;;5.03;2.45;;;9.30;69.20;;;;;;5095464;28;20181;-71
2021/05/09 01:07:42;;;;;;;4.03;2.33;;;9.20;69.60;;;;;;5094821;28;20201;-70
2021/05/09 01:10:15;;;;;;;4.53;2.55;;;9.20;70.70;;;;;;5100132;28;20250;-70
2021/05/09 01:12:44;;;;;;;3.75;1.90;;;9.10;70.80;;;;;;5115731;28;20208;-71
2021/05/09 01:15:12;;;;;;;3.95;2.38;;;9.00;71.60;;;;;;5109842;28;20709;-70
2021/05/09 01:17:42;;;;;;;3.80;2.10;;;8.90;71.70;;;;;;5095252;28;20224;-71
2021/05/09 01:20:31;;;;;;;3.35;2.45;;;8.90;72.00;;;;;;5099041;28;20234;-70
2021/05/09 01:23:05;;;;;;;3.17;1.83;;;8.90;72.60;;;;;;5115533;28;20278;-71
2021/05/09 01:25:33;;;;;;;4.18;2.13;;;8.90;72.80;;;;;;5115186;28;20184;-70
2021/05/09 01:28:00;;;;;;;2.78;1.80;;;8.80;73.00;;;;;;5115676;28;20546;-71
2021/05/09 01:30:27;;;;;;;2.67;1.63;;;8.80;73.20;;;;;;5109155;28;20213;-71
2021/05/09 01:32:54;;;;;;;4.95;2.85;;;8.70;72.60;;;;;;5093882;28;20189;-71
2021/05/09 01:35:21;;;;;;;2.72;1.50;;;8.70;73.30;;;;;;5098391;28;20262;-70
2021/05/09 01:37:49;;;;;;;2.85;2.00;;;8.60;72.90;;;;;;5115284;28;20197;-71
2021/05/09 01:40:16;;;;;;;3.08;1.83;;;8.60;73.20;;;;;;5108150;28;20203;-71
2021/05/09 01:42:43;;;;;;;3.00;1.95;;;8.60;72.90;;;;;;5095392;28;20523;-71
2021/05/09 01:45:11;;;;;;;2.78;1.50;;;8.60;73.20;;;;;;5099557;28;20643;-70
2021/05/09 01:47:38;;;;;;;3.38;1.80;;;8.60;73.50;;;;;;5114678;28;20697;-71
2021/05/09 01:50:08;;;;;;;2.80;1.75;;;8.60;73.40;;;;;;5113209;28;20189;-71
2021/05/09 01:52:35;;;;;;;3.58;2.00;;;8.70;73.60;;;;;;5114787;28;20192;-70
2021/05/09 01:55:07;;;;;;;2.50;1.60;;;8.70;73.10;;;;;;5111139;28;20204;-70
2021/05/09 01:57:34;;;;;;;3.35;1.88;;;8.80;72.50;;;;;;5094295;28;20178;-71
2021/05/09 02:00:07;;;;;;;4.72;2.53;;;8.80;72.60;;;;;;5095264;28;20196;-71
2021/05/09 02:02:33;;;;;;;5.10;2.83;;;8.80;72.40;;;;;;5094345;28;20427;-70
2021/05/09 02:05:00;;;;;;;4.28;2.00;;;8.80;72.20;;;;;;5095820;28;20211;-70
2021/05/09 02:07:32;;;;;;;3.80;2.40;;;8.90;72.20;;;;;;5114660;28;20199;-71
2021/05/09 02:10:03;;;;;;;3.10;2.05;;;8.90;72.20;;;;;;5114979;27;20287;-70
2021/05/09 02:12:31;;;;;;;3.05;2.17;;;8.90;70.40;;;;;;5114826;28;20219;-71
2021/05/09 02:15:01;;;;;;;4.50;2.10;;;8.80;69.20;;;;;;5109628;28;20181;-71
2021/05/09 02:17:31;;;;;;;2.85;1.85;;;8.80;69.00;;;;;;5093961;28;20214;-70
2021/05/09 02:19:59;;;;;;;4.85;2.20;;;8.70;68.80;;;;;;5093825;28;20263;-70
2021/05/09 02:22:27;;;;;;;2.72;1.80;;;8.70;69.10;;;;;;5094407;28;20196;-70
2021/05/09 02:24:54;;;;;;;2.63;1.80;;;8.70;69.90;;;;;;5094945;28;20195;-70
2021/05/09 02:27:21;;;;;;;2.30;1.58;;;8.70;69.80;;;;;;5113390;28;20210;-71
2021/05/09 02:29:52;;;;;;;4.00;1.95;;;8.60;69.20;;;;;;5112425;28;20221;-71
2021/05/09 02:32:19;;;;;;;6.38;2.50;;;8.50;69.00;;;;;;5093964;28;20238;-70
2021/05/09 02:34:45;;;;;;;3.58;2.75;;;8.40;68.80;;;;;;5093507;28;20275;-71
2021/05/09 02:37:37;;;;;;;3.75;2.83;;;8.40;69.60;;;;;;5093741;28;20220;-71
2021/05/09 02:40:07;;;;;;;2.35;1.60;;;8.20;69.00;;;;;;5093630;28;20526;-70
2021/05/09 02:42:36;;;;;;;2.40;1.60;;;8.00;68.90;;;;;;5094332;28;20276;-71
2021/05/09 02:45:05;;;;;;;2.40;1.85;;;7.90;69.60;;;;;;5094374;28;20211;-70
2021/05/09 02:47:32;;;;;;;4.00;1.90;;;7.90;70.20;;;;;;5093157;28;20196;-70
2021/05/09 02:50:01;;;;;;;4.45;2.10;;;7.80;70.40;;;;;;5093375;28;20188;-70
2021/05/09 02:52:28;;;;;;;5.03;1.95;;;7.80;70.40;;;;;;5093828;28;20189;-70
2021/05/09 02:54:55;;;;;;;3.30;2.05;;;7.70;70.00;;;;;;5093595;28;20640;-71
2021/05/09 02:57:24;;;;;;;2.78;1.70;;;7.70;70.40;;;;;;5093658;28;20216;-71
2021/05/09 02:59:51;;;;;;;3.83;2.00;;;7.70;71.20;;;;;;5103233;28;20264;-71
2021/05/09 03:02:19;;;;;;;3.78;2.22;;;7.70;71.20;;;;;;5114041;28;20212;-70
2021/05/09 03:04:46;;;;;;;3.05;2.15;;;7.70;72.00;;;;;;5104633;28;20192;-70
2021/05/09 03:07:12;;;;;;;3.53;2.03;;;7.60;72.00;;;;;;5093434;28;20693;-71
2021/05/09 03:09:39;;;;;;;3.47;2.53;;;7.60;72.30;;;;;;5100851;28;20234;-70
2021/05/09 03:12:06;;;;;;;2.50;2.10;;;7.70;72.50;;;;;;5113670;28;20275;-70
2021/05/09 03:14:37;;;;;;;3.42;2.10;;;7.70;72.80;;;;;;5111917;28;20216;-70
2021/05/09 03:17:10;;;;;;;3.22;1.85;;;7.70;73.60;;;;;;5113620;28;20220;-71
2021/05/09 03:19:38;;;;;;;2.60;2.30;;;7.70;74.10;;;;;;5107082;28;20188;-70
2021/05/09 03:22:04;;;;;;;2.40;1.70;;;7.80;73.90;;;;;;5093035;28;20200;-71
2021/05/09 03:24:34;;;;;;;3.53;1.70;;;7.80;73.30;;;;;;5097503;28;20177;-71
2021/05/09 03:27:01;;;;;;;2.20;1.65;;;7.80;72.80;;;;;;5101699;28;20650;-70
2021/05/09 03:29:29;;;;;;;3.15;2.10;;;7.90;72.60;;;;;;5092677;28;20269;-70
2021/05/09 03:31:56;;;;;;;3.35;1.50;;;7.90;72.10;;;;;;5091278;28;20189;-72
2021/05/09 03:34:23;;;;;;;2.90;1.95;;;7.80;71.70;;;;;;5092731;28;20599;-70
2021/05/09 03:36:50;;;;;;;2.53;1.90;;;7.80;72.00;;;;;;5092453;28;20220;-72
2021/05/09 03:39:18;;;;;;;2.50;1.58;;;7.90;72.70;;;;;;5093250;28;20196;-71
2021/05/09 03:41:44;;;;;;;2.80;1.58;;;7.90;72.10;;;;;;5092633;28;20682;-71
2021/05/09 03:44:13;;;;;;;2.53;1.70;;;7.90;71.20;;;;;;5092757;28;20193;-70
2021/05/09 03:46:40;;;;;;;4.00;1.65;;;7.90;71.30;;;;;;5093083;28;20197;-71
2021/05/09 03:49:08;;;;;;;3.30;2.08;;;7.90;71.30;;;;;;5092679;28;20728;-70
2021/05/09 03:51:38;;;;;;;2.30;1.52;;;7.90;70.70;;;;;;5098853;28;20184;-71
2021/05/09 03:54:06;;;;;;;2.90;1.60;;;7.90;70.60;;;;;;5106616;28;20587;-71
2021/05/09 03:56:33;;;;;;;2.30;1.70;;;7.90;70.10;;;;;;5092234;28;20227;-71
2021/05/09 03:58:59;;;;;;;2.35;1.40;;;7.90;70.20;;;;;;5096598;28;20189;-70
2021/05/09 04:01:35;;;;;;;2.58;1.70;;;7.90;70.70;;;;;;5113000;28;20680;-71
2021/05/09 04:04:02;;;;;;;2.53;1.65;;;7.80;70.70;;;;;;5111392;28;20184;-71
2021/05/09 04:06:29;;;;;;;3.05;2.00;;;7.80;71.00;;;;;;5096835;28;20189;-70
2021/05/09 04:08:57;;;;;;;2.20;1.52;;;7.70;71.10;;;;;;5092878;28;20596;-70
2021/05/09 04:11:24;;;;;;;3.80;1.80;;;7.70;71.20;;;;;;5092770;28;20276;-71
2021/05/09 04:13:51;;;;;;;3.15;2.00;;;7.70;71.30;;;;;;5092454;28;20189;-71
2021/05/09 04:16:20;;;;;;;4.57;2.58;;;7.70;71.50;;;;;;5092546;28;20213;-70
2021/05/09 04:18:50;;;;;;;4.30;2.00;;;7.70;71.60;;;;;;5092310;28;20284;-70
2021/05/09 04:21:19;;;;;;;3.00;1.70;;;7.70;71.70;;;;;;5092909;28;20271;-71
2021/05/09 04:23:45;;;;;;;3.92;1.90;;;7.60;72.20;;;;;;5092478;28;20711;-71
2021/05/09 04:26:12;;;;;;;3.10;1.92;;;7.70;72.60;;;;;;5092961;28;20276;-70
2021/05/09 04:28:39;;;;;;;2.75;2.00;;;7.60;72.40;;;;;;5092412;28;20189;-70
2021/05/09 04:31:09;;;;;;;4.47;2.08;;;7.70;72.40;;;;;;5092408;28;20221;-70
2021/05/09 04:33:43;;;;;;;2.80;2.05;;;7.70;72.50;;;;;;5094999;28;20188;-70
2021/05/09 04:36:10;;;;;;;3.35;2.03;;;7.80;72.90;;;;;;5112814;28;20216;-70
2021/05/09 04:38:37;;;;;;;3.60;1.90;;;7.80;73.40;;;;;;5109828;28;20192;-70
2021/05/09 04:41:04;;;;;;;4.47;1.90;;;7.90;73.60;;;;;;5092380;28;20278;-70
2021/05/09 04:43:30;;;;;;;2.72;1.90;;;7.90;73.70;;;;;;5092385;28;20228;-70
2021/05/09 04:45:59;;;;;;;2.97;2.08;;;8.00;74.00;;;;;;5111241;28;20328;-70
2021/05/09 04:48:25;;;;;;;3.95;1.95;;;8.10;74.00;;;;;;5112426;28;20202;-70
2021/05/09 04:50:54;;;;;;;2.78;2.17;;;8.20;74.10;;;;;;5112766;28;20678;-71
2021/05/09 04:53:26;;;;;;;3.17;2.20;;;8.20;74.40;;;;;;5112830;28;20200;-70
2021/05/09 04:55:52;;;;;;;2.58;1.95;;;8.30;74.90;;;;;;5093873;28;20607;-70
2021/05/09 04:58:21;;;;;;;3.15;1.75;;;8.40;75.50;;;;;;5092247;28;20224;-71
2021/05/09 05:00:51;;;;;;;3.08;1.75;;;8.50;76.40;;;;;;5092288;28;20193;-71
2021/05/09 05:03:18;;;;;;;2.60;1.60;;;8.50;76.80;;;;;;5092312;28;20558;-71
2021/05/09 05:05:45;;;;;;;3.08;1.83;;;8.60;76.60;;;;;;5110780;28;20212;-70
2021/05/09 05:08:11;;;;;;;3.83;2.40;;;8.80;76.40;;;;;;5115418;28;20228;-70
2021/05/09 05:10:38;;;;;;;5.40;2.70;;;8.90;77.40;;;;;;5116007;28;20718;-71
2021/05/09 05:13:19;;;;;;;2.90;1.80;;;9.00;76.80;;;;;;5114947;28;20248;-71
2021/05/09 05:15:48;;;;;;;2.53;1.60;;;9.20;77.10;;;;;;5095925;28;20573;-70
2021/05/09 05:18:14;;;;;;;4.13;1.88;;;9.30;76.70;;;;;;5096362;28;20193;-71
2021/05/09 05:20:43;;;;;;;2.25;1.60;;;9.40;77.40;;;;;;5116263;28;20199;-71
2021/05/09 05:23:10;;;;;;;3.03;1.80;;;9.50;79.00;;;;;;5115358;28;20558;-71
2021/05/09 05:25:39;;;;;;;3.92;2.10;;;9.60;79.80;;;;;;5095336;28;20193;-70
2021/05/09 05:28:06;;;;;;;5.07;2.00;;;9.80;79.70;;;;;;5095603;28;20250;-70
2021/05/09 05:30:33;;;;;;;2.80;1.85;;;9.90;79.80;;;;;;5115361;28;20273;-71
2021/05/09 05:33:01;;;;;;;3.38;1.70;;;10.10;78.20;;;;;;5115860;28;20192;-71
2021/05/09 05:35:29;;;;;;;3.28;1.30;;;10.20;77.70;;;;;;5114688;28;20188;-71
2021/05/09 05:37:57;;;;;;;3.25;1.50;;;10.40;77.30;;;;;;5115788;28;20191;-71
2021/05/09 05:40:24;;;;;;;3.97;1.45;;;10.50;77.00;;;;;;5096852;28;20189;-71
2021/05/09 05:42:52;;;;;;;4.95;1.40;;;10.70;77.00;;;;;;5095260;28;20185;-71
2021/05/09 05:45:20;;;;;;;2.55;1.83;;;10.80;77.30;;;;;;5110424;28;20219;-70
2021/05/09 05:47:49;;;;;;;2.72;1.70;;;11.00;79.00;;;;;;5110952;28;20185;-71
2021/05/09 05:50:17;;;;;;;3.10;2.35;;;11.20;80.50;;;;;;5095322;28;20189;-71
2021/05/09 05:52:44;;;;;;;3.55;2.13;;;11.30;81.90;;;;;;5095822;28;20185;-70
2021/05/09 05:55:13;;;;;;;7.13;2.90;;;11.60;83.10;;;;;;5095006;28;20193;-71
2021/05/09 05:57:39;;;;;;;4.38;2.97;;;11.80;80.50;;;;;;5095181;28;20587;-71
2021/05/09 06:00:08;;;;;;;3.00;1.58;;;12.00;76.30;;;;;;5094948;28;20260;-71
2021/05/09 06:02:36;;;;;;;3.15;1.65;;;12.20;72.80;;;;;;5094400;28;20197;-71
2021/05/09 06:05:09;;;;;;;1.90;1.23;;;12.50;67.40;;;;;;5115196;28;20189;-72
2021/05/09 06:07:35;;;;;;;2.20;1.30;;;12.80;63.30;;;;;;5114126;28;20195;-72
2021/05/09 06:10:03;;;;;;;2.78;1.55;;;13.00;59.40;;;;;;5094568;28;20189;-71
2021/05/09 06:12:31;;;;;;;2.17;1.33;;;13.30;57.10;;;;;;5094409;28;20196;-72
2021/05/09 06:14:57;;;;;;;3.60;1.50;;;13.70;55.70;;;;;;5094696;28;20189;-71
2021/05/09 06:17:25;;;;;;;2.90;1.42;;;13.90;55.70;;;;;;5094036;28;20221;-71
2021/05/09 06:19:53;;;;;;;1.80;1.20;;;14.10;53.80;;;;;;5095070;28;20217;-71
2021/05/09 06:22:20;;;;;;;2.05;1.13;;;14.30;54.10;;;;;;5094581;28;20192;-71
2021/05/09 06:24:48;;;;;;;4.43;2.67;;;14.60;52.90;;;;;;5113074;28;20195;-72
2021/05/09 06:27:17;;;;;;;2.77;1.50;;;14.70;53.00;;;;;;5114754;28;20433;-71
2021/05/09 06:29:44;;;;;;;3.40;1.70;;;15.00;51.70;;;;;;5095936;28;20475;-73
2021/05/09 06:32:12;;;;;;;4.60;1.10;;;15.20;50.20;;;;;;5094488;28;20887;-71
2021/05/09 06:34:42;;;;;;;3.90;1.33;;;15.40;50.30;;;;;;5094361;28;20435;-71
2021/05/09 06:37:10;;;;;;;2.30;1.03;;;15.60;51.30;;;;;;5094310;28;20479;-71
2021/05/09 06:39:37;;;;;;;1.67;1.00;;;15.70;51.20;;;;;;5094891;28;20443;-72
2021/05/09 06:42:05;;;;;;;2.87;1.00;;;15.80;52.20;;;;;;5094683;28;20546;-71
2021/05/09 06:44:34;;;;;;;2.80;1.67;;;16.00;51.80;;;;;;5108401;28;20431;-71
2021/05/09 06:47:02;;;;;;;2.73;1.13;;;16.10;52.10;;;;;;5114344;28;20449;-71
2021/05/09 06:49:30;;;;;;;2.73;0.87;;;16.30;53.40;;;;;;5094790;28;20810;-71
2021/05/09 06:51:57;;;;;;;1.87;1.07;;;16.40;52.00;;;;;;5093729;28;20510;-72
2021/05/09 06:54:30;;;;;;;2.00;0.90;;;16.70;49.50;;;;;;5093772;28;20432;-72
2021/05/09 06:56:58;;;;;;;2.17;1.20;;;16.90;48.90;;;;;;5093593;28;20489;-71
2021/05/09 06:59:26;;;;;;;2.43;1.07;;;17.00;49.00;;;;;;5093750;28;20450;-71
2021/05/09 07:01:53;;;;;;;2.80;1.03;;;17.20;47.30;;;;;;5103505;28;20434;-72
2021/05/09 07:04:21;;;;;;;2.57;0.70;;;17.40;47.30;;;;;;5114212;28;20442;-71
2021/05/09 07:06:48;;;;;;;2.30;1.03;;;17.50;46.70;;;;;;5112431;28;20442;-72
2021/05/09 07:09:14;;;;;;;1.70;0.80;;;17.60;45.20;;;;;;5114017;28;20445;-72
2021/05/09 07:11:41;;;;;;;1.60;0.70;;;17.90;44.30;;;;;;5104890;28;20427;-72
2021/05/09 07:14:08;;;;;;;1.87;1.10;;;18.10;43.80;;;;;;5094432;28;20529;-72
2021/05/09 07:16:35;;;;;;;2.00;1.07;;;18.10;43.40;;;;;;5093384;28;20521;-72
2021/05/09 07:19:05;;;;;;;1.53;0.90;;;18.30;44.40;;;;;;5093212;28;20443;-72
2021/05/09 07:21:35;;;;;;;2.63;0.80;;;18.40;41.90;;;;;;5093497;28;20439;-72
2021/05/09 07:24:02;;;;;;;1.70;0.73;;;18.60;43.10;;;;;;5094281;28;20439;-72
2021/05/09 07:26:29;;;;;;;1.60;0.70;;;18.70;41.80;;;;;;5099450;28;20507;-71
2021/05/09 07:28:56;;;;;;;1.70;0.70;;;18.90;41.20;;;;;;5112321;28;20435;-71
2021/05/09 07:31:23;;;;;;;1.70;0.93;;;19.00;38.80;;;;;;5092842;28;20520;-71
2021/05/09 07:33:50;;;;;;;1.70;0.90;;;19.20;36.90;;;;;;5093259;28;20998;-72
2021/05/09 07:36:17;;;;;;;2.00;0.80;;;19.30;36.70;;;;;;5108146;28;20474;-72
2021/05/09 07:38:45;;;;;;;2.90;1.00;;;19.40;36.80;;;;;;5093120;28;20434;-71
2021/05/09 07:41:11;;;;;;;1.77;0.70;;;19.50;37.00;;;;;;5109083;28;20438;-72
2021/05/09 07:43:38;;;;;;;2.90;0.77;;;19.70;36.30;;;;;;5113263;28;20435;-72
2021/05/09 07:46:04;;;;;;;1.80;0.80;;;19.80;36.90;;;;;;5096360;28;20440;-71
2021/05/09 07:48:31;;;;;;;1.63;0.83;;;19.80;35.50;;;;;;5094893;28;20443;-71
2021/05/09 07:50:59;;;;;;;1.70;0.73;;;19.90;36.70;;;;;;5092823;28;20460;-72
2021/05/09 07:53:30;;;;;;;1.80;0.90;;;20.10;35.80;;;;;;5092818;28;20439;-72
2021/05/09 07:55:59;;;;;;;1.70;0.70;;;20.20;36.90;;;;;;5092857;28;20466;-72
2021/05/09 07:58:26;;;;;;;1.50;0.70;;;20.30;38.30;;;;;;5092752;28;20442;-72
2021/05/09 08:00:55;;;;;;;2.93;1.03;;;20.40;37.70;;;;;;5093047;28;20452;-73
2021/05/09 08:03:32;;;;;;;3.17;0.80;;;20.50;36.20;;;;;;5100141;28;20438;-72
2021/05/09 08:06:02;;;;;;;1.87;0.80;;;20.70;36.20;;;;;;5092751;28;20988;-72
2021/05/09 08:08:31;;;;;;;3.77;0.93;;;20.90;35.00;;;;;;5092474;28;20521;-72
2021/05/09 08:11:02;;;;;;;1.73;0.90;;;21.00;35.80;;;;;;5092729;28;20454;-72
2021/05/09 08:13:38;;;;;;;2.03;0.70;;;21.10;35.70;;;;;;5105697;28;20483;-72
2021/05/09 08:16:07;;;;;;;1.67;0.70;;;21.20;37.60;;;;;;5092529;28;21053;-71
2021/05/09 08:18:34;;;;;;;1.97;0.60;;;21.30;35.10;;;;;;5092663;28;20443;-72
2021/05/09 08:21:06;;;;;;;1.50;0.63;;;21.50;36.50;;;;;;5092493;28;20427;-72
2021/05/09 08:23:43;;;;;;;3.07;0.83;;;21.70;36.60;;;;;;5092308;28;20427;-72
2021/05/09 08:26:15;;;;;;;2.50;0.70;;;22.00;35.20;;;;;;5092693;28;20534;-72
2021/05/09 08:28:43;;;;;;;1.80;0.87;;;22.10;34.20;;;;;;5107143;28;20843;-71
2021/05/09 08:31:17;;;;;;;2.37;0.80;;;22.30;34.80;;;;;;5109636;28;20471;-72
2021/05/09 08:33:48;;;;;;;1.90;0.73;;;22.50;34.00;;;;;;5108420;28;20430;-72
2021/05/09 08:36:17;;;;;;;1.60;0.90;;;22.70;33.20;;;;;;5110294;28;20579;-72
2021/05/09 08:38:44;;;;;;;1.90;0.77;;;22.80;33.30;;;;;;5109586;28;20426;-72
2021/05/09 08:41:13;;;;;;;2.57;0.70;;;23.00;34.00;;;;;;5110997;28;20442;-72
2021/05/09 08:43:40;;;;;;;1.60;0.77;;;23.00;32.80;;;;;;5095976;28;20455;-72
2021/05/09 08:46:08;;;;;;;1.70;0.83;;;23.20;32.40;;;;;;5096381;28;20433;-72
2021/05/09 08:48:37;;;;;;;2.00;0.77;;;23.30;30.70;;;;;;5096304;28;20439;-72
2021/05/09 08:51:05;;;;;;;2.00;0.80;;;23.30;31.70;;;;;;5113265;28;20462;-72
2021/05/09 08:53:33;;;;;;;1.70;0.70;;;23.40;34.70;;;;;;5099733;28;20439;-72
2021/05/09 08:56:02;;;;;;;2.27;1.00;;;23.60;31.00;;;;;;5096471;28;20478;-72
2021/05/09 08:58:30;;;;;;;1.60;0.70;;;23.70;32.60;;;;;;5096588;28;20507;-73
2021/05/09 09:00:57;;;;;;;1.60;0.77;;;23.90;31.30;;;;;;5096757;28;20442;-72
2021/05/09 09:03:24;;;;;;;1.43;0.63;;;23.90;32.00;;;;;;5107233;28;20435;-72
2021/05/09 09:05:51;;;;;;;4.17;0.80;;;24.10;28.50;;;;;;5096628;28;20518;-72
2021/05/09 09:08:20;;;;;;;1.70;0.70;;;24.20;31.20;;;;;;5095854;28;20468;-72
2021/05/09 09:10:49;;;;;;;1.50;0.60;;;24.30;27.80;;;;;;5095849;28;20854;-72
2021/05/09 09:13:22;;;;;;;1.60;0.60;;;24.60;25.50;;;;;;5095830;28;20446;-72
2021/05/09 09:15:58;;;;;;;1.70;0.77;;;24.60;25.20;;;;;;5095324;28;20490;-72
2021/05/09 09:18:36;;;;;;;2.83;1.03;;;24.70;26.00;;;;;;5095135;28;20452;-72
2021/05/09 09:21:34;;;;;;;2.87;1.00;;;24.70;25.40;;;;;;5112933;28;20434;-72
2021/05/09 09:24:05;;;;;;;3.20;0.70;;;24.80;24.80;;;;;;5113362;28;20431;-72
2021/05/09 09:26:35;;;;;;;3.90;0.80;;;24.90;27.60;;;;;;5103015;28;20454;-72
2021/05/09 09:29:19;;;;;;;3.77;0.90;;;25.10;23.20;;;;;;5095773;28;20437;-73
2021/05/09 09:31:51;;;;;;;1.70;0.80;;;25.20;23.80;;;;;;5056844;28;20439;-72
2021/05/09 09:34:17;;;;;;;2.13;0.57;;;25.20;24.40;;;;;;5054762;28;20506;-72
2021/05/09 09:36:44;;;;;;;1.50;0.70;;;25.30;24.30;;;;;;5054261;28;20575;-72
2021/05/09 09:39:11;;;;;;;2.30;1.23;;;25.30;24.30;;;;;;5054728;28;20440;-72
2021/05/09 09:41:45;;;;;;;2.40;0.87;;;25.50;22.90;;;;;;5054595;28;20799;-72
2021/05/09 09:44:13;;;;;;;14.43;1.60;;;25.50;23.70;;;;;;5068285;28;20471;-72
2021/05/09 09:46:41;;;;;;;1.73;0.67;;;25.60;24.80;;;;;;5072360;28;20488;-72
2021/05/09 09:49:30;;;;;;;4.40;1.00;;;25.80;24.90;;;;;;5072220;28;20505;-72
2021/05/09 09:51:58;;;;;;;2.33;0.87;;;25.80;24.70;;;;;;5058887;28;20437;-72
2021/05/09 09:54:42;;;;;;;1.80;0.90;;;25.90;25.50;;;;;;5054829;28;20444;-72
2021/05/09 09:57:11;;;;;;;1.50;0.60;;;25.90;22.80;;;;;;5057371;28;20886;-72
2021/05/09 09:59:38;;;;;;;1.53;0.63;;;25.90;22.60;;;;;;5054371;28;20449;-71
2021/05/09 10:02:09;;;;;;;2.33;0.80;;;26.00;23.50;;;;;;5054909;28;20437;-72
2021/05/09 10:04:40;;;;;;;2.13;0.70;;;26.10;21.70;;;;;;5054141;28;20987;-72
2021/05/09 10:07:08;;;;;;;3.07;0.80;;;26.10;23.20;;;;;;5053742;28;20863;-72
2021/05/09 10:09:34;;;;;;;2.47;1.10;;;26.20;23.60;;;;;;5053982;28;20956;-72
2021/05/09 10:12:01;;;;;;;3.73;0.93;;;26.20;24.50;;;;;;5054112;28;20562;-72
2021/05/09 10:14:29;;;;;;;2.20;0.67;;;26.30;24.40;;;;;;5052377;28;20438;-73
2021/05/09 10:16:57;;;;;;;3.83;1.30;;;26.40;24.60;;;;;;5063164;28;20474;-72
2021/05/09 10:19:26;;;;;;;2.80;0.70;;;26.40;21.50;;;;;;5054142;28;20557;-72
2021/05/09 10:21:56;;;;;;;1.50;0.60;;;26.40;20.30;;;;;;5054334;28;20450;-72
2021/05/09 10:24:24;;;;;;;2.47;0.70;;;26.40;21.50;;;;;;5070938;28;20478;-72
2021/05/09 10:26:59;;;;;;;2.60;0.60;;;26.50;23.50;;;;;;5057436;28;20488;-72
2021/05/09 10:29:48;;;;;;;1.90;1.00;;;26.60;21.80;;;;;;5055662;28;20436;-73
2021/05/09 10:32:54;;;;;;;1.80;0.73;;;26.70;22.80;;;;;;5110296;28;20434;-72
2021/05/09 10:35:55;;;;;;;2.53;0.80;;;26.90;24.60;;;;;;5108287;28;20526;-71
2021/05/09 10:38:22;;;;;;;1.90;0.70;;;27.00;22.90;;;;;;5093784;28;20963;-72
2021/05/09 10:40:49;;;;;;;1.50;0.70;;;27.10;21.70;;;;;;5093857;28;20437;-72
2021/05/09 10:43:47;;;;;;;2.23;0.70;;;27.10;22.40;;;;;;5092945;28;20439;-72
2021/05/09 10:46:13;;;;;;;2.07;1.00;;;27.10;21.50;;;;;;5109079;28;20480;-71
2021/05/09 10:48:40;;;;;;;2.00;0.67;;;27.20;21.80;;;;;;5107723;28;20450;-71
2021/05/09 10:51:28;;;;;;;2.37;0.70;;;27.20;21.00;;;;;;5093634;28;20608;-72
2021/05/09 10:54:18;;;;;;;2.23;0.70;;;27.30;21.90;;;;;;5094351;28;20431;-72
2021/05/09 10:56:45;;;;;;;1.90;0.93;;;27.30;21.10;;;;;;5093745;28;20543;-72
2021/05/09 10:59:12;;;;;;;1.73;0.60;;;27.30;20.40;;;;;;5093901;28;20438;-72
2021/05/09 11:01:39;;;;;;;2.60;0.80;;;27.40;19.00;;;;;;5093257;28;20485;-72
2021/05/09 11:04:06;;;;;;;3.60;0.63;;;27.50;22.10;;;;;;5093966;28;20439;-72
2021/05/09 11:06:39;;;;;;;1.60;0.70;;;27.50;24.00;;;;;;5094119;28;20448;-71
2021/05/09 11:09:08;;;;;;;1.70;0.80;;;27.50;21.70;;;;;;5093900;28;20499;-71
2021/05/09 11:12:02;;;;;;;2.83;0.60;;;27.60;21.20;;;;;;5093977;28;20431;-71
2021/05/09 11:14:33;;;;;;;2.33;0.70;;;27.60;21.00;;;;;;5093826;28;20438;-71
2021/05/09 11:17:02;;;;;;;1.47;0.60;;;27.70;18.50;;;;;;5093904;28;20896;-72
2021/05/09 11:19:42;;;;;;;1.30;0.50;;;27.80;20.30;;;;;;5093588;28;20925;-71
2021/05/09 11:22:09;;;;;;;2.40;0.60;;;27.80;21.20;;;;;;5093752;28;20948;-71
2021/05/09 11:24:38;;;;;;;3.30;0.70;;;27.80;21.50;;;;;;5093645;28;20860;-71
2021/05/09 11:27:08;;;;;;;2.33;1.00;;;27.90;21.10;;;;;;5093583;28;20435;-72
2021/05/09 11:29:35;;;;;;;2.10;0.60;;;28.00;21.50;;;;;;5093170;28;20852;-71
2021/05/09 11:32:07;;;;;;;1.83;0.70;;;28.10;20.20;;;;;;5093595;28;20439;-71
2021/05/09 11:34:33;;;;;;;1.60;0.60;;;28.20;21.60;;;;;;5093638;28;20442;-71
2021/05/09 11:37:01;;;;;;;3.50;0.80;;;28.30;21.50;;;;;;5093434;28;20478;-71
2021/05/09 11:39:37;;;;;;;1.80;0.77;;;28.40;21.60;;;;;;5093409;28;20523;-72
2021/05/09 11:42:11;;;;;;;1.90;0.83;;;28.50;21.70;;;;;;5093783;28;20431;-71
2021/05/09 11:44:42;;;;;;;1.60;0.60;;;28.60;21.60;;;;;;5093154;28;20523;-71
2021/05/09 11:47:11;;;;;;;1.60;0.67;;;28.70;21.80;;;;;;5093480;28;20435;-72
2021/05/09 11:49:38;;;;;;;1.83;0.70;;;28.80;19.90;;;;;;5093111;28;20523;-72
2021/05/09 11:52:07;;;;;;;1.70;0.60;;;28.80;19.80;;;;;;5093253;28;20542;-72
2021/05/09 11:54:36;;;;;;;1.50;0.70;;;28.90;22.40;;;;;;5093043;28;20439;-71
2021/05/09 11:57:04;;;;;;;1.47;0.57;;;28.90;23.30;;;;;;5092746;28;20569;-71
2021/05/09 11:59:36;;;;;;;1.80;0.70;;;28.90;19.80;;;;;;5093161;28;20523;-72
2021/05/09 12:02:05;;;;;;;1.93;1.00;;;28.80;21.70;;;;;;5093010;28;20440;-71
2021/05/09 12:04:32;;;;;;;2.30;1.50;;;28.80;22.70;;;;;;5093205;28;20470;-71
2021/05/09 12:07:00;;;;;;;2.70;0.83;;;28.80;23.20;;;;;;5093103;28;20443;-71
2021/05/09 12:09:28;;;;;;;3.40;0.77;;;28.90;22.70;;;;;;5092617;28;20929;-71
2021/05/09 12:11:56;;;;;;;1.40;0.60;;;28.90;21.70;;;;;;5093200;28;20472;-71
2021/05/09 12:14:24;;;;;;;1.50;0.70;;;28.90;22.60;;;;;;5093069;28;20436;-72
2021/05/09 12:16:53;;;;;;;2.23;0.80;;;28.90;22.40;;;;;;5095746;28;20566;-71
2021/05/09 12:19:20;;;;;;;2.10;0.60;;;28.80;24.30;;;;;;5097375;28;20515;-72
2021/05/09 12:22:03;;;;;;;1.80;0.80;;;28.90;24.30;;;;;;5097253;28;20481;-71
2021/05/09 12:24:30;;;;;;;6.10;0.80;;;29.00;25.10;;;;;;5097124;28;20434;-71
2021/05/09 12:26:59;;;;;;;1.70;0.80;;;29.00;25.10;;;;;;5097088;28;20477;-71
2021/05/09 12:29:26;;;;;;;2.70;0.90;;;29.10;26.50;;;;;;5096916;28;20443;-71
2021/05/09 12:31:54;;;;;;;2.00;0.90;;;29.20;22.50;;;;;;5096818;28;20428;-72
2021/05/09 12:34:29;;;;;;;1.70;0.70;;;29.20;22.90;;;;;;5096824;28;20523;-71
2021/05/09 12:37:14;;;;;;;3.47;1.20;;;29.20;22.20;;;;;;5096645;28;20607;-72
2021/05/09 12:39:40;;;;;;;9.10;2.33;;;29.20;24.20;;;;;;5096861;28;20438;-71
2021/05/09 12:42:08;;;;;;;2.23;1.00;;;29.30;25.30;;;;;;5096738;28;20530;-71
2021/05/09 12:44:34;;;;;;;1.70;0.80;;;29.40;25.80;;;;;;5096251;28;20525;-71
2021/05/09 12:47:01;;;;;;;2.37;1.20;;;29.40;21.70;;;;;;5096659;28;20530;-72
2021/05/09 12:49:29;;;;;;;2.40;1.80;;;29.40;22.90;;;;;;5096711;28;20841;-71
2021/05/09 12:52:02;;;;;;;3.00;1.00;;;29.50;24.30;;;;;;5096265;28;20530;-71
2021/05/09 12:54:34;;;;;;;2.07;0.90;;;29.60;23.50;;;;;;5096613;28;20522;-71
2021/05/09 12:57:15;;;;;;;1.90;0.90;;;29.60;22.10;;;;;;5096487;28;20875;-72
2021/05/09 12:59:50;;;;;;;3.00;1.17;;;29.70;23.50;;;;;;5096396;28;20433;-71
2021/05/09 13:02:18;;;;;;;3.00;0.80;;;29.70;24.00;;;;;;5096258;28;20525;-71
2021/05/09 13:04:47;;;;;;;5.63;1.03;;;29.70;23.10;;;;;;5096302;28;21016;-71